createdAt,value
2022-10-03T00:01:51.820Z,101864.28
2022-10-03T00:04:33.347Z,101880.81
2022-10-03T00:07:21.454Z,101841.69
2022-10-03T00:10:18.711Z,101883.47
2022-10-03T00:13:14.093Z,101882.53
2022-10-03T00:15:46.297Z,101865.16
2022-10-03T00:18:40.017Z,101885.16
2022-10-03T00:21:52.663Z,101874.78
2022-10-03T00:24:57.909Z,101875.63
2022-10-03T00:27:43.369Z,101863.50
2022-10-03T00:30:19.030Z,101893.94
2022-10-03T00:33:14.361Z,101859.16
2022-10-03T00:35:49.661Z,101894.88
2022-10-03T00:38:22.469Z,101890.53
2022-10-03T00:41:21.814Z,101869.69
2022-10-03T00:44:12.534Z,101894.88
2022-10-03T00:46:57.248Z,101897.50
2022-10-03T00:49:45.140Z,101893.13
2022-10-03T00:52:40.229Z,101845.31
2022-10-03T00:55:14.474Z,101859.25
2022-10-03T00:58:17.954Z,101899.31
2022-10-03T01:00:51.257Z,101869.81
2022-10-03T01:03:36.267Z,101902.94
2022-10-03T01:06:15.751Z,101892.50
2022-10-03T01:08:57.439Z,101901.28
2022-10-03T01:11:42.087Z,101894.31
2022-10-03T01:14:20.678Z,101874.34
2022-10-03T01:16:56.094Z,101904.84
2022-10-03T01:19:33.329Z,101880.53
2022-10-03T01:22:21.454Z,101897.84
2022-10-03T01:25:18.334Z,101899.63
2022-10-03T01:28:37.490Z,101885.69
2022-10-03T01:31:11.145Z,101898.75
2022-10-03T01:33:54.655Z,101914.50
2022-10-03T01:37:08.828Z,101908.41
2022-10-03T01:39:44.445Z,101890.16
2022-10-03T01:42:20.506Z,101920.69
2022-10-03T01:45:02.933Z,101909.47
2022-10-03T01:47:47.322Z,101939.16
2022-10-03T01:50:37.291Z,101906.09
2022-10-03T01:53:28.572Z,101933.97
2022-10-03T01:55:59.840Z,101933.09
2022-10-03T01:58:56.653Z,101943.56
2022-10-03T02:01:39.510Z,101924.44
2022-10-03T02:04:12.089Z,101943.56
2022-10-03T02:06:43.860Z,101930.53
2022-10-03T02:09:25.131Z,101945.34
2022-10-03T02:11:51.405Z,101940.09
2022-10-03T02:14:25.967Z,101938.34
2022-10-03T02:17:04.976Z,101937.47
2022-10-03T02:19:45.708Z,101934.09
2022-10-03T02:22:28.638Z,101930.59
2022-10-03T02:25:31.116Z,101941.03
2022-10-03T02:28:13.735Z,101940.19
2022-10-03T02:31:04.661Z,101924.50
2022-10-03T02:33:52.839Z,101944.53
2022-10-03T02:36:40.663Z,101941.91
2022-10-03T02:39:16.827Z,101947.16
2022-10-03T02:42:17.425Z,101909.69
2022-10-03T02:45:12.140Z,101905.38
2022-10-03T02:48:27.109Z,101936.72
2022-10-03T02:51:06.861Z,101936.72
2022-10-03T02:53:44.947Z,101934.97
2022-10-03T02:56:30.222Z,101957.69
2022-10-03T02:59:08.740Z,101936.66
2022-10-03T03:01:50.380Z,101954.13
2022-10-03T03:04:28.843Z,101943.59
2022-10-03T03:07:36.992Z,101951.50
2022-10-03T03:10:15.439Z,101950.59
2022-10-03T03:13:01.250Z,101941.94
2022-10-03T03:16:05.359Z,101920.16
2022-10-03T03:18:54.923Z,101950.53
2022-10-03T03:21:29.351Z,101959.34
2022-10-03T03:23:58.805Z,101957.63
2022-10-03T03:26:28.899Z,101954.13
2022-10-03T03:29:24.905Z,101928.84
2022-10-03T03:32:22.812Z,101929.72
2022-10-03T03:35:11.055Z,101950.66
2022-10-03T03:38:08.403Z,101949.78
2022-10-03T03:40:56.476Z,101932.44
2022-10-03T03:43:34.253Z,101956.84
2022-10-03T03:46:29.770Z,101957.78
2022-10-03T03:49:29.485Z,101961.31
2022-10-03T03:52:01.950Z,101967.44
2022-10-03T03:54:51.265Z,101952.66
2022-10-03T03:57:47.166Z,101971.84
2022-10-03T04:00:20.985Z,101964.78
2022-10-03T04:03:03.698Z,101950.84
2022-10-03T04:06:03.361Z,101953.47
2022-10-03T04:09:03.421Z,101954.31
2022-10-03T04:11:49.808Z,101940.38
2022-10-03T04:14:37.538Z,101978.75
2022-10-03T04:17:31.782Z,101977.00
2022-10-03T04:20:01.087Z,101971.81
2022-10-03T04:22:36.577Z,101928.28
2022-10-03T04:25:29.073Z,101978.84
2022-10-03T04:28:33.063Z,101947.53
2022-10-03T04:31:21.998Z,101958.84
2022-10-03T04:34:15.049Z,101979.75
2022-10-03T04:36:48.784Z,101957.13
2022-10-03T04:39:42.279Z,101960.63
2022-10-03T04:42:28.120Z,101950.13
2022-10-03T04:45:07.336Z,101975.38
2022-10-03T04:47:42.756Z,101977.13
2022-10-03T04:50:12.079Z,101980.66
2022-10-03T04:52:49.966Z,101984.22
2022-10-03T04:55:39.083Z,101905.78
2022-10-03T04:58:16.947Z,101964.19
2022-10-03T05:00:56.614Z,101956.31
2022-10-03T05:03:41.570Z,101982.41
2022-10-03T05:06:26.289Z,101975.47
2022-10-03T05:08:52.510Z,101992.06
2022-10-03T05:11:36.452Z,101977.25
2022-10-03T05:14:29.509Z,101994.63
2022-10-03T05:17:07.059Z,101981.56
2022-10-03T05:19:42.403Z,101997.22
2022-10-03T05:22:27.147Z,101923.13
2022-10-03T05:25:22.734Z,101984.97
2022-10-03T05:28:22.134Z,101987.63
2022-10-03T05:31:37.760Z,101985.88
2022-10-03T05:34:18.912Z,101960.59
2022-10-03T05:37:09.606Z,101996.31
2022-10-03T05:40:02.135Z,101994.63
2022-10-03T05:42:49.582Z,101999.88
2022-10-03T05:45:30.213Z,101991.22
2022-10-03T05:48:14.233Z,102000.75
2022-10-03T05:51:16.237Z,101989.50
2022-10-03T05:53:57.657Z,101984.22
2022-10-03T05:56:41.678Z,102006.88
2022-10-03T05:59:16.654Z,101992.06
2022-10-03T06:02:08.433Z,101999.88
2022-10-03T06:05:01.571Z,101999.88
2022-10-03T06:08:01.107Z,102007.75
2022-10-03T06:10:58.585Z,102031.25
2022-10-03T06:13:46.983Z,102026.91
2022-10-03T06:16:31.590Z,102022.56
2022-10-03T06:19:06.233Z,102035.63
2022-10-03T06:21:42.230Z,102033.88
2022-10-03T06:24:14.562Z,102037.31
2022-10-03T06:26:49.858Z,102044.25
2022-10-03T06:29:54.454Z,102039.00
2022-10-03T06:33:09.166Z,102040.75
2022-10-03T06:35:56.952Z,102042.44
2022-10-03T06:38:49.071Z,102048.56
2022-10-03T06:41:47.863Z,102034.56
2022-10-03T06:44:32.704Z,102038.03
2022-10-03T06:47:31.415Z,102040.59
2022-10-03T06:50:13.078Z,102045.00
2022-10-03T06:52:54.654Z,102041.47
2022-10-03T06:55:56.384Z,102047.66
2022-10-03T06:58:44.005Z,102000.56
2022-10-03T07:01:52.488Z,102049.38
2022-10-03T07:05:05.315Z,102044.91
2022-10-03T07:08:15.689Z,102051.00
2022-10-03T07:10:41.929Z,102042.19
2022-10-03T07:13:39.222Z,102050.09
2022-10-03T07:16:43.621Z,102058.78
2022-10-03T07:19:27.730Z,102063.97
2022-10-03T07:22:11.589Z,102037.75
2022-10-03T07:25:06.002Z,102060.28
2022-10-03T07:27:35.285Z,102061.25
2022-10-03T07:30:19.010Z,102041.09
2022-10-03T07:33:16.302Z,102062.09
2022-10-03T07:36:51.977Z,102051.78
2022-10-03T07:39:49.607Z,102078.78
2022-10-03T07:42:46.980Z,102082.28
2022-10-03T07:45:31.071Z,102086.53
2022-10-03T07:48:38.937Z,102052.47
2022-10-03T07:51:24.092Z,102093.50
2022-10-03T07:54:32.075Z,102097.75
2022-10-03T07:57:25.366Z,102030.66
2022-10-03T08:00:07.885Z,102074.97
2022-10-03T08:03:03.770Z,102052.31
2022-10-03T08:05:52.326Z,102091.41
2022-10-03T08:08:56.802Z,102100.78
2022-10-03T08:11:42.262Z,102073.59
2022-10-03T08:14:36.535Z,102091.66
2022-10-03T08:17:13.843Z,102087.09
2022-10-03T08:20:18.504Z,102019.97
2022-10-03T08:23:08.770Z,102088.44
2022-10-03T08:25:53.910Z,102098.53
2022-10-03T08:28:50.405Z,102107.13
2022-10-03T08:31:25.340Z,102103.53
2022-10-03T08:34:32.667Z,102107.75
2022-10-03T08:37:31.497Z,102107.63
2022-10-03T08:40:42.421Z,102108.44
2022-10-03T08:43:37.334Z,102114.03
2022-10-03T08:46:33.733Z,102104.34
2022-10-03T08:49:33.988Z,102102.41
2022-10-03T08:52:33.298Z,102077.13
2022-10-03T08:55:25.339Z,102078.88
2022-10-03T08:58:28.811Z,102101.44
2022-10-03T09:01:18.441Z,102093.78
2022-10-03T09:04:05.922Z,102097.75
2022-10-03T09:09:53.727Z,102102.91
2022-10-03T09:12:31.597Z,102101.72
2022-10-03T09:15:42.475Z,102098.28
2022-10-03T09:18:35.680Z,102077.88
2022-10-03T09:21:22.589Z,102091.50
2022-10-03T09:24:18.483Z,102084.19
2022-10-03T09:27:09.300Z,102073.53
2022-10-03T09:29:47.929Z,102085.34
2022-10-03T09:32:36.345Z,102087.63
2022-10-03T09:35:33.643Z,102075.63
2022-10-03T09:38:21.941Z,102084.69
2022-10-03T09:41:08.363Z,102086.41
2022-10-03T09:43:53.670Z,102075.59
2022-10-03T09:47:16.034Z,102083.25
2022-10-03T09:50:19.862Z,102076.75
2022-10-03T09:53:04.200Z,102085.16
2022-10-03T09:55:39.623Z,102084.38
2022-10-03T09:58:39.830Z,102084.94
2022-10-03T10:01:27.527Z,102084.03
2022-10-03T10:04:09.123Z,102074.91
2022-10-03T10:06:57.597Z,102059.78
2022-10-03T10:09:52.925Z,102079.41
2022-10-03T10:12:31.568Z,102061.97
2022-10-03T10:15:30.365Z,102071.75
2022-10-03T10:18:26.056Z,102045.19
2022-10-03T10:21:11.114Z,102057.69
2022-10-03T10:24:02.260Z,102054.53
2022-10-03T10:26:53.958Z,102058.06
2022-10-03T10:29:39.030Z,102033.41
2022-10-03T10:32:41.768Z,102042.78
2022-10-03T10:35:39.131Z,102055.53
2022-10-03T10:38:26.666Z,102051.47
2022-10-03T10:41:11.911Z,102057.84
2022-10-03T10:44:16.947Z,102057.28
2022-10-03T10:47:05.973Z,102047.50
2022-10-03T10:50:11.677Z,102048.53
2022-10-03T10:53:09.265Z,102057.00
2022-10-03T10:55:57.065Z,102051.31
2022-10-03T10:59:01.504Z,102052.75
2022-10-03T11:01:49.147Z,102050.56
2022-10-03T11:04:38.299Z,102041.59
2022-10-03T11:07:36.854Z,102039.28
2022-10-03T11:10:31.534Z,102043.09
2022-10-03T11:13:00.920Z,102045.38
2022-10-03T11:15:53.566Z,102014.91
2022-10-03T11:18:54.005Z,102050.56
2022-10-03T11:21:42.191Z,102050.75
2022-10-03T11:24:23.831Z,102037.25
2022-10-03T11:27:18.193Z,102035.19
2022-10-03T11:30:08.897Z,102033.34
2022-10-03T11:33:24.008Z,102025.47
2022-10-03T11:36:16.205Z,102019.94
2022-10-03T11:39:20.866Z,102031.28
2022-10-03T11:41:51.778Z,102020.47
2022-10-03T11:44:31.227Z,101980.84
2022-10-03T11:47:20.859Z,102040.50
2022-10-03T11:50:24.815Z,102029.63
2022-10-03T11:53:20.315Z,102038.50
2022-10-03T11:55:51.328Z,102001.34
2022-10-03T11:58:42.211Z,102033.69
2022-10-03T12:01:33.705Z,102039.66
2022-10-03T12:04:37.156Z,102037.75
2022-10-03T12:07:31.951Z,102030.44
2022-10-03T12:10:18.186Z,101995.22
2022-10-03T12:12:55.194Z,102000.53
2022-10-03T12:15:38.183Z,101959.91
2022-10-03T12:18:18.057Z,102023.16
2022-10-03T12:21:06.989Z,102023.66
2022-10-03T12:23:55.272Z,102019.34
2022-10-03T12:26:55.687Z,102014.44
2022-10-03T12:29:26.450Z,102014.09
2022-10-03T12:32:04.265Z,102016.25
2022-10-03T12:35:10.821Z,102004.03
2022-10-03T12:37:52.053Z,102005.19
2022-10-03T12:40:24.463Z,102022.56
2022-10-03T12:43:15.696Z,102019.75
2022-10-03T12:45:52.529Z,101972.16
2022-10-03T12:48:57.444Z,102013.63
2022-10-03T12:51:48.667Z,102015.34
2022-10-03T12:54:43.441Z,101996.50
2022-10-03T12:57:46.327Z,102001.56
2022-10-03T13:00:24.139Z,102014.44
2022-10-03T13:03:31.190Z,102001.59
2022-10-03T13:06:44.519Z,102011.22
2022-10-03T13:09:23.342Z,101991.66
2022-10-03T13:12:07.901Z,101991.44
2022-10-03T13:15:20.960Z,101993.28
2022-10-03T13:17:59.339Z,101985.59
2022-10-03T13:20:34.706Z,101991.94
2022-10-03T13:23:20.452Z,101972.84
2022-10-03T13:25:57.185Z,101990.56
2022-10-03T13:28:32.335Z,101989.81
2022-10-03T13:31:15.897Z,101967.28
2022-10-03T13:33:47.021Z,101938.06
2022-10-03T13:36:23.675Z,101985.69
2022-10-03T13:39:11.545Z,101957.38
2022-10-03T13:42:02.098Z,101990.06
2022-10-03T13:44:36.915Z,101985.75
2022-10-03T13:47:12.235Z,101986.16
2022-10-03T13:50:02.444Z,101975.97
2022-10-03T13:52:41.721Z,101978.94
2022-10-03T13:55:32.490Z,101971.22
2022-10-03T13:58:36.356Z,101972.78
2022-10-03T14:01:13.501Z,101966.03
2022-10-03T14:04:07.546Z,101970.66
2022-10-03T14:06:48.106Z,101968.00
2022-10-03T14:09:33.199Z,101933.09
2022-10-03T14:12:33.083Z,101964.69
2022-10-03T14:15:25.738Z,101965.22
2022-10-03T14:18:13.093Z,101968.09
2022-10-03T14:21:17.607Z,101962.13
2022-10-03T14:24:02.535Z,101960.53
2022-10-03T14:26:42.657Z,101957.72
2022-10-03T14:29:12.007Z,101953.38
2022-10-03T14:31:56.987Z,101900.91
2022-10-03T14:34:40.029Z,101913.03
2022-10-03T14:37:14.218Z,101919.16
2022-10-03T14:39:52.875Z,101933.06
2022-10-03T14:43:03.316Z,101934.75
2022-10-03T14:45:45.132Z,101929.78
2022-10-03T14:48:23.799Z,101928.69
2022-10-03T14:50:55.869Z,101938.56
2022-10-03T14:53:29.960Z,101874.25
2022-10-03T14:56:10.348Z,101937.41
2022-10-03T14:58:48.875Z,101910.78
2022-10-03T15:01:20.566Z,101934.63
2022-10-03T15:04:13.621Z,101903.91
2022-10-03T15:06:46.235Z,101941.88
2022-10-03T15:09:18.392Z,101940.97
2022-10-03T15:11:49.553Z,101939.13
2022-10-03T15:14:16.586Z,101871.59
2022-10-03T15:16:56.061Z,101893.81
2022-10-03T15:19:47.735Z,101908.50
2022-10-03T15:22:29.368Z,101899.44
2022-10-03T15:25:02.939Z,101895.06
2022-10-03T15:27:30.390Z,101896.25
2022-10-03T15:30:04.292Z,101874.53
2022-10-03T15:32:44.778Z,101879.66
2022-10-03T15:35:18.064Z,101903.69
2022-10-03T15:37:47.824Z,101890.53
2022-10-03T15:40:35.476Z,101914.44
2022-10-03T15:43:12.914Z,101908.66
2022-10-03T15:45:40.627Z,101877.28
2022-10-03T15:48:16.405Z,101892.50
2022-10-03T15:50:49.573Z,101900.63
2022-10-03T15:53:36.239Z,101865.34
2022-10-03T15:56:18.870Z,101893.59
2022-10-03T15:58:52.749Z,101871.16
2022-10-03T16:01:23.372Z,101890.75
2022-10-03T16:03:54.480Z,101855.78
2022-10-03T16:06:23.338Z,101869.44
2022-10-03T16:09:07.976Z,101872.03
2022-10-03T16:11:53.033Z,101883.31
2022-10-03T16:14:41.166Z,101875.38
2022-10-03T16:17:14.969Z,101853.41
2022-10-03T16:19:49.563Z,101880.91
2022-10-03T16:22:20.647Z,101839.22
2022-10-03T16:24:46.972Z,101864.63
2022-10-03T16:27:43.639Z,101860.13
2022-10-03T16:30:09.947Z,101865.53
2022-10-03T16:33:07.207Z,101838.69
2022-10-03T16:35:35.464Z,101845.56
2022-10-03T16:38:06.358Z,101862.19
2022-10-03T16:40:37.764Z,101838.59
2022-10-03T16:43:10.820Z,101849.25
2022-10-03T16:45:44.288Z,101847.09
2022-10-03T16:48:37.961Z,101821.38
2022-10-03T16:51:10.276Z,101842.50
2022-10-03T16:53:42.456Z,101836.66
2022-10-03T16:56:15.568Z,101791.16
2022-10-03T16:58:49.294Z,101816.63
2022-10-03T17:01:28.286Z,101823.59
2022-10-03T17:04:15.734Z,101827.22
2022-10-03T17:06:47.437Z,101843.34
2022-10-03T17:09:39.068Z,101848.53
2022-10-03T17:12:14.220Z,101823.50
2022-10-03T17:14:42.449Z,101833.13
2022-10-03T17:17:25.091Z,101819.53
2022-10-03T17:20:07.932Z,101834.94
2022-10-03T17:22:43.215Z,101845.06
2022-10-03T17:25:18.768Z,101847.28
2022-10-03T17:27:50.062Z,101828.44
2022-10-03T17:30:34.799Z,101837.56
2022-10-03T17:33:27.605Z,101841.44
2022-10-03T17:36:02.973Z,101715.59
2022-10-03T17:38:53.295Z,101842.06
2022-10-03T17:41:27.504Z,101826.41
2022-10-03T17:44:20.107Z,101846.09
2022-10-03T17:46:58.636Z,101848.56
2022-10-03T17:49:43.026Z,101796.56
2022-10-03T17:52:19.762Z,101804.41
2022-10-03T17:54:55.982Z,101818.66
2022-10-03T17:57:59.531Z,101840.28
2022-10-03T18:01:01.957Z,101831.78
2022-10-03T18:03:39.373Z,101824.81
2022-10-03T18:06:21.150Z,101828.66
2022-10-03T18:08:50.847Z,101830.56
2022-10-03T18:11:22.037Z,101820.06
2022-10-03T18:14:00.097Z,101696.97
2022-10-03T18:16:46.055Z,101825.28
2022-10-03T18:19:39.774Z,101802.75
2022-10-03T18:22:23.337Z,101830.94
2022-10-03T18:26:19.925Z,101821.16
2022-10-03T18:29:11.483Z,101834.00
2022-10-03T18:31:45.231Z,101839.44
2022-10-03T18:34:21.776Z,101750.03
2022-10-03T18:36:51.197Z,101820.19
2022-10-03T18:39:22.302Z,101715.72
2022-10-03T18:41:52.247Z,101679.94
2022-10-03T18:44:22.064Z,101818.72
2022-10-03T18:46:53.092Z,101801.94
2022-10-03T18:49:34.079Z,101731.75
2022-10-03T18:52:04.258Z,101798.38
2022-10-03T18:54:42.627Z,101802.84
2022-10-03T18:57:36.053Z,101814.81
2022-10-03T19:00:18.042Z,101815.31
2022-10-03T19:02:53.016Z,101813.72
2022-10-03T19:05:19.293Z,101814.66
2022-10-03T19:08:00.706Z,101812.63
2022-10-03T19:10:39.226Z,101822.94
2022-10-03T19:13:12.279Z,101815.47
2022-10-03T19:16:09.110Z,101797.94
2022-10-03T19:18:43.318Z,101811.56
2022-10-03T19:21:18.832Z,101814.22
2022-10-03T19:23:51.165Z,101806.28
2022-10-03T19:26:25.754Z,101804.41
2022-10-03T19:28:56.451Z,101808.97
2022-10-03T19:31:30.011Z,101766.47
2022-10-03T19:34:02.945Z,101761.44
2022-10-03T19:36:34.174Z,101798.78
2022-10-03T19:39:01.377Z,101807.00
2022-10-03T19:41:35.113Z,101811.25
2022-10-03T19:44:09.277Z,101803.38
2022-10-03T19:46:50.557Z,101805.28
2022-10-03T19:49:23.699Z,101805.22
2022-10-03T19:51:50.281Z,101751.44
2022-10-03T19:54:43.226Z,101789.38
2022-10-03T19:57:16.889Z,101782.78
2022-10-03T19:59:46.859Z,101802.44
2022-10-03T20:02:13.352Z,101792.78
2022-10-03T20:04:40.325Z,101702.19
2022-10-03T20:07:16.052Z,101788.16
2022-10-03T20:09:56.322Z,101807.16
2022-10-03T20:12:27.767Z,101786.34
2022-10-03T20:14:58.103Z,101803.78
2022-10-03T20:17:25.123Z,101792.50
2022-10-03T20:19:58.102Z,101803.38
2022-10-03T20:22:28.551Z,101759.84
2022-10-03T20:24:55.678Z,101782.34
2022-10-03T20:27:43.079Z,101803.34
2022-10-03T20:30:30.821Z,101804.59
2022-10-03T20:32:59.230Z,101797.13
2022-10-03T20:35:31.933Z,101792.00
2022-10-03T20:38:17.216Z,101721.66
2022-10-03T20:40:52.179Z,101778.84
2022-10-03T20:43:56.544Z,101791.72
2022-10-03T20:46:26.265Z,101769.09
2022-10-03T20:49:10.971Z,101777.84
2022-10-03T20:51:38.965Z,101790.78
2022-10-03T20:54:12.601Z,101781.50
2022-10-03T20:56:54.496Z,101790.13
2022-10-03T20:59:27.336Z,101777.72
2022-10-03T21:02:05.805Z,101692.88
2022-10-03T21:04:40.002Z,101626.09
2022-10-03T21:07:12.140Z,101781.44
2022-10-03T21:10:01.933Z,101782.41
2022-10-03T21:12:34.119Z,101775.63
2022-10-03T21:15:16.217Z,101763.00
2022-10-03T21:17:45.355Z,101768.34
2022-10-03T21:20:18.654Z,101756.28
2022-10-03T21:22:50.018Z,101784.81
2022-10-03T21:25:30.226Z,101744.72
2022-10-03T21:27:57.732Z,101791.63
2022-10-03T21:30:36.028Z,101784.56
2022-10-03T21:33:09.742Z,101781.91
2022-10-03T21:35:39.498Z,101781.97
2022-10-03T21:38:11.879Z,101780.19
2022-10-03T21:41:04.634Z,101764.50
2022-10-03T21:43:33.902Z,101777.41
2022-10-03T21:46:19.956Z,101778.38
2022-10-03T21:49:04.695Z,101778.94
2022-10-03T21:51:41.825Z,101775.63
2022-10-03T21:54:24.256Z,101763.13
2022-10-03T21:57:08.738Z,101763.91
2022-10-03T21:59:49.587Z,101718.88
2022-10-03T22:02:41.087Z,101740.47
2022-10-03T22:05:27.483Z,101777.25
2022-10-03T22:07:53.977Z,101770.41
2022-10-03T22:10:39.974Z,101760.66
2022-10-03T22:13:09.097Z,101752.75
2022-10-03T22:15:57.842Z,101768.16
2022-10-03T22:18:30.250Z,101761.22
2022-10-03T22:21:23.878Z,101740.38
2022-10-03T22:24:01.535Z,101738.56
2022-10-03T22:26:35.910Z,101756.78
2022-10-03T22:29:13.292Z,101761.16
2022-10-03T22:31:52.021Z,101758.56
2022-10-03T22:34:54.503Z,101755.94
2022-10-03T22:37:22.154Z,101760.38
2022-10-03T22:39:49.276Z,101747.31
2022-10-03T22:42:16.507Z,101635.53
2022-10-03T22:44:46.326Z,101716.97
2022-10-03T22:47:19.391Z,101710.72
2022-10-03T22:49:48.188Z,101737.72
2022-10-03T22:52:24.195Z,101725.66
2022-10-03T22:54:52.429Z,101702.94
2022-10-03T22:57:19.413Z,101691.41
2022-10-03T22:59:51.839Z,101712.22
2022-10-03T23:02:25.544Z,101689.66
2022-10-03T23:05:15.759Z,101696.97
2022-10-03T23:07:59.999Z,101703.78
2022-10-03T23:10:31.753Z,101707.19
2022-10-03T23:13:06.466Z,101700.56
2022-10-03T23:15:37.365Z,101702.13
2022-10-03T23:18:40.181Z,101709.06
2022-10-03T23:21:13.079Z,101675.91
2022-10-03T23:24:10.181Z,101691.50
2022-10-03T23:26:48.713Z,101690.81
2022-10-03T23:29:17.006Z,101684.69
2022-10-03T23:31:58.237Z,101681.94
2022-10-03T23:34:39.873Z,101693.38
2022-10-03T23:37:15.173Z,101703.41
2022-10-03T23:39:44.102Z,101631.59
2022-10-03T23:42:19.169Z,101694.72
2022-10-03T23:44:57.803Z,101664.38
2022-10-03T23:47:38.996Z,101686.75
2022-10-03T23:50:07.022Z,101660.72
2022-10-03T23:52:47.146Z,101620.59
2022-10-03T23:55:23.157Z,101668.47
2022-10-03T23:57:49.854Z,101679.94
